Apj Shirin — 3EVS6 — position and weather

sailwx.info

Track history (hours):
 
Tides and Currents Weather Stations Pressure Air Temp Water Temp Dewpoint Dewpoint Depression Visibility Wind Speed Wind Dir Waves Ship Positions

Apj Shirin

Last reported at 2015-Jun-21 19:25 UTC. Time now 2015-Jun-30 09:58 UTC.
Position S 19°49' E 057°37'.
Warning: this ship's position is 8 days out of date.

Length 189 m; draft 11.9 m.

Type: Cargo ship. MMSI: 373223000.

Date/timePositionNaut miles runAvg speedWind from/ knotsBaromVisibWave heightAir tempDewpointWater temp
2015-Jun-21 19:25S 19°49' E 057°37'1112.6
2015-Jun-21 18:33S 19°57' E 057°29'10 9.7
2015-Jun-21 17:33S 20°06' E 057°28'1 1.3
2015-Jun-21 16:31S 20°08' E 057°28'0 0.0
2015-Jun-21 15:31S 20°08' E 057°28'0 0.0
2015-Jun-21 14:31S 20°08' E 057°28'0 0.1
2015-Jun-21 13:31S 20°08' E 057°28'0 0.0
2015-Jun-21 12:31S 20°08' E 057°28'0 0.0
2015-Jun-21 11:31S 20°08' E 057°28'0 0.0
2015-Jun-21 10:31S 20°08' E 057°28'1 0.7
2015-Jun-21 09:33S 20°07' E 057°28'5 4.7
2015-Jun-21 08:33S 20°07' E 057°23'8 8.0
2015-Jun-21 07:33S 20°13' E 057°16'1413.5
2015-Jun-21 06:33S 20°22' E 057°06'  
Track history (hours):
 
Tides and Currents Weather Stations Pressure Air Temp Water Temp Dewpoint Dewpoint Depression Visibility Wind Speed Wind Dir Waves Ship Positions

Apj Shirin

Last reported at 2015-Jun-21 19:25 UTC. Time now 2015-Jun-30 09:58 UTC.
Position S 19°49' E 057°37'.
Warning: this ship's position is 8 days out of date.

Length 189 m; draft 11.9 m.

Type: Cargo ship. MMSI: 373223000.

Date/timePositionNaut miles runAvg speedWind from/ knotsBaromVisibWave heightAir tempDewpointWater temp
2015-Jun-21 19:25S 19°49' E 057°37'1112.6
2015-Jun-21 18:33S 19°57' E 057°29'10 9.7
2015-Jun-21 17:33S 20°06' E 057°28'1 1.3
2015-Jun-21 16:31S 20°08' E 057°28'0 0.0
2015-Jun-21 15:31S 20°08' E 057°28'0 0.0
2015-Jun-21 14:31S 20°08' E 057°28'0 0.1
2015-Jun-21 13:31S 20°08' E 057°28'0 0.0
2015-Jun-21 12:31S 20°08' E 057°28'0 0.0
2015-Jun-21 11:31S 20°08' E 057°28'0 0.0
2015-Jun-21 10:31S 20°08' E 057°28'1 0.7
2015-Jun-21 09:33S 20°07' E 057°28'5 4.7
2015-Jun-21 08:33S 20°07' E 057°23'8 8.0
2015-Jun-21 07:33S 20°13' E 057°16'1413.5
2015-Jun-21 06:33S 20°22' E 057°06'  

Dump ship's entire track history